createdAt,value
2023-05-21T00:00:08.469Z,97524.03
2023-05-21T00:02:40.168Z,97509.78
2023-05-21T00:05:13.765Z,97515.66
2023-05-21T00:07:41.756Z,97511.47
2023-05-21T00:10:09.214Z,97513.97
2023-05-21T00:12:36.245Z,97517.22
2023-05-21T00:15:03.483Z,97509.59
2023-05-21T00:17:31.580Z,97513.97
2023-05-21T00:19:59.047Z,97505.81
2023-05-21T00:22:26.074Z,97503.53
2023-05-21T00:24:52.978Z,97499.00
2023-05-21T00:27:19.979Z,97496.72
2023-05-21T00:29:46.920Z,97498.66
2023-05-21T00:32:13.971Z,97499.03
2023-05-21T00:34:41.721Z,97496.00
2023-05-21T00:37:10.193Z,97483.06
2023-05-21T00:39:37.272Z,97486.34
2023-05-21T00:42:04.593Z,97486.34
2023-05-21T00:44:34.579Z,97486.53
2023-05-21T00:47:02.697Z,97479.31
2023-05-21T00:49:30.917Z,97478.56
2023-05-21T00:51:58.087Z,97484.59
2023-05-21T00:54:25.271Z,97486.88
2023-05-21T00:56:52.408Z,97486.31
2023-05-21T00:59:19.665Z,97485.53
2023-05-21T01:01:46.746Z,97480.81
2023-05-21T01:04:13.996Z,97488.75
2023-05-21T01:06:40.909Z,97475.66
2023-05-21T01:09:09.473Z,97480.38
2023-05-21T01:11:43.718Z,97474.13
2023-05-21T01:14:13.012Z,97480.03
2023-05-21T01:16:42.546Z,97472.81
2023-05-21T01:19:14.376Z,97477.38
2023-05-21T01:21:45.492Z,97473.59
2023-05-21T01:24:12.437Z,97459.94
2023-05-21T01:26:41.474Z,97457.66
2023-05-21T01:29:13.491Z,97461.84
2023-05-21T01:32:07.393Z,97460.00
2023-05-21T01:35:13.474Z,97461.50
2023-05-21T01:38:05.139Z,97459.78
2023-05-21T01:40:38.585Z,97463.25
2023-05-21T01:43:07.393Z,97456.78
2023-05-21T01:45:39.086Z,97459.09
2023-05-21T01:48:08.095Z,97460.25
2023-05-21T01:50:37.295Z,97457.41
2023-05-21T01:53:06.087Z,97455.72
2023-05-21T01:55:33.612Z,97452.69
2023-05-21T01:58:02.489Z,97448.16
2023-05-21T02:00:31.119Z,97454.41
2023-05-21T02:02:59.015Z,97454.97
2023-05-21T02:05:26.386Z,97447.59
2023-05-21T02:07:55.140Z,97448.94
2023-05-21T02:10:22.928Z,97454.47
2023-05-21T02:12:49.952Z,97443.06
2023-05-21T02:15:18.294Z,97449.34
2023-05-21T02:17:46.784Z,97454.09
2023-05-21T02:20:14.737Z,97461.88
2023-05-21T02:22:48.086Z,97450.13
2023-05-21T02:25:18.516Z,97451.47
2023-05-21T02:27:47.129Z,97448.63
2023-05-21T02:30:15.816Z,97442.34
2023-05-21T02:32:43.828Z,97444.44
2023-05-21T02:35:12.729Z,97451.47
2023-05-21T02:37:40.806Z,97447.28
2023-05-21T02:40:10.349Z,97450.69
2023-05-21T02:42:40.267Z,97439.16
2023-05-21T02:45:10.446Z,97439.16
2023-05-21T02:47:39.381Z,97435.91
2023-05-21T02:50:09.193Z,97442.00
2023-05-21T02:52:43.457Z,97438.97
2023-05-21T02:55:10.779Z,97444.47
2023-05-21T02:57:37.801Z,97442.97
2023-05-21T03:00:09.029Z,97437.84
2023-05-21T03:02:38.696Z,97437.66
2023-05-21T03:05:06.716Z,97437.47
2023-05-21T03:07:34.166Z,97437.69
2023-05-21T03:10:01.724Z,97436.00
2023-05-21T03:12:29.974Z,97438.84
2023-05-21T03:14:57.033Z,97440.94
2023-05-21T03:17:24.149Z,97442.84
2023-05-21T03:19:51.440Z,97436.78
2023-05-21T03:22:20.232Z,97442.28
2023-05-21T03:24:47.279Z,97441.72
2023-05-21T03:27:14.939Z,97443.97
2023-05-21T03:29:44.848Z,97438.69
2023-05-21T03:32:13.656Z,97435.28
2023-05-21T03:34:41.423Z,97429.59
2023-05-21T03:37:08.480Z,97442.84
2023-05-21T03:39:35.515Z,97430.53
2023-05-21T03:42:03.252Z,97439.84
2023-05-21T03:44:40.352Z,97437.16
2023-05-21T03:47:39.365Z,97437.94
2023-05-21T03:50:09.674Z,97438.50
2023-05-21T03:52:37.161Z,97440.00
2023-05-21T03:55:05.192Z,97441.34
2023-05-21T03:57:32.242Z,97443.63
2023-05-21T03:59:59.581Z,97451.97
2023-05-21T04:02:27.649Z,97450.81
2023-05-21T04:04:56.241Z,97450.81
2023-05-21T04:07:24.842Z,97447.41
2023-05-21T04:09:51.890Z,97454.03
2023-05-21T04:12:20.479Z,97451.94
2023-05-21T04:14:48.170Z,97450.44
2023-05-21T04:17:15.276Z,97456.88
2023-05-21T04:19:42.255Z,97454.78
2023-05-21T04:22:12.277Z,97471.66
2023-05-21T04:24:39.634Z,97461.97
2023-05-21T04:27:27.848Z,97456.06
2023-05-21T04:29:55.000Z,97459.44
2023-05-21T04:32:24.453Z,97466.09
2023-05-21T04:34:51.439Z,97461.34
2023-05-21T04:37:18.684Z,97462.25
2023-05-21T04:39:47.110Z,97470.75
2023-05-21T04:42:14.467Z,97477.16
2023-05-21T04:44:44.729Z,97475.59
2023-05-21T04:47:15.115Z,97477.66
2023-05-21T04:49:42.492Z,97474.59
2023-05-21T04:52:09.448Z,97478.72
2023-05-21T04:54:39.138Z,97476.22
2023-05-21T04:57:06.787Z,97481.09
2023-05-21T04:59:35.318Z,97471.16
2023-05-21T05:02:02.388Z,97473.94
2023-05-21T05:04:29.561Z,97475.63
2023-05-21T05:06:56.734Z,97462.16
2023-05-21T05:09:25.436Z,97462.31
2023-05-21T05:11:53.058Z,97468.78
2023-05-21T05:14:20.177Z,97461.16
2023-05-21T05:16:48.493Z,97461.25
2023-05-21T05:19:16.497Z,97467.06
2023-05-21T05:21:44.677Z,97455.56
2023-05-21T05:24:12.257Z,97466.19
2023-05-21T05:26:39.192Z,97456.63
2023-05-21T05:29:06.228Z,97457.72
2023-05-21T05:31:33.746Z,97457.28
2023-05-21T05:34:01.167Z,97453.47
2023-05-21T05:36:29.906Z,97456.31
2023-05-21T05:38:57.193Z,97449.44
2023-05-21T05:41:25.295Z,97451.63
2023-05-21T05:43:53.643Z,97453.91
2023-05-21T05:46:22.494Z,97463.91
2023-05-21T05:48:51.128Z,97446.34
2023-05-21T05:51:18.485Z,97448.94
2023-05-21T05:53:47.965Z,97461.03
2023-05-21T05:56:17.335Z,97457.50
2023-05-21T05:58:45.439Z,97462.66
2023-05-21T06:01:15.684Z,97458.53
2023-05-21T06:03:42.782Z,97467.00
2023-05-21T06:06:15.512Z,97455.16
2023-05-21T06:08:42.958Z,97457.56
2023-05-21T06:11:11.553Z,97451.38
2023-05-21T06:13:39.343Z,97452.72
2023-05-21T06:16:07.869Z,97458.91
2023-05-21T06:18:36.681Z,97446.56
2023-05-21T06:21:04.537Z,97447.94
2023-05-21T06:23:32.895Z,97458.53
2023-05-21T06:26:02.541Z,97453.28
2023-05-21T06:28:29.887Z,97459.69
2023-05-21T06:30:58.299Z,97453.81
2023-05-21T06:33:27.786Z,97453.28
2023-05-21T06:35:56.256Z,97456.50
2023-05-21T06:38:24.754Z,97447.97
2023-05-21T06:40:53.234Z,97449.16
2023-05-21T06:43:38.314Z,97444.22
2023-05-21T06:46:24.454Z,97445.56
2023-05-21T06:48:53.052Z,97445.28
2023-05-21T06:51:21.031Z,97451.63
2023-05-21T06:53:48.579Z,97448.47
2023-05-21T06:56:17.131Z,97445.28
2023-05-21T06:58:44.520Z,97446.97
2023-05-21T07:01:12.257Z,97452.25
2023-05-21T07:03:39.636Z,97444.69
2023-05-21T07:06:08.545Z,97461.16
2023-05-21T07:08:35.507Z,97446.66
2023-05-21T07:11:03.785Z,97453.13
2023-05-21T07:13:31.501Z,97454.97
2023-05-21T07:15:58.847Z,97448.31
2023-05-21T07:18:26.963Z,97450.88
2023-05-21T07:20:54.557Z,97454.63
2023-05-21T07:23:21.775Z,97457.19
2023-05-21T07:25:48.804Z,97441.34
2023-05-21T07:28:15.946Z,97448.13
2023-05-21T07:30:43.999Z,97435.28
2023-05-21T07:33:14.841Z,97442.34
2023-05-21T07:35:42.478Z,97435.41
2023-05-21T07:38:09.843Z,97430.69
2023-05-21T07:40:38.309Z,97443.34
2023-05-21T07:43:06.076Z,97443.13
2023-05-21T07:45:35.037Z,97444.13
2023-05-21T07:48:03.054Z,97440.44
2023-05-21T07:50:32.777Z,97439.78
2023-05-21T07:53:00.270Z,97441.69
2023-05-21T07:55:27.556Z,97429.41
2023-05-21T07:57:55.112Z,97433.78
2023-05-21T08:00:28.848Z,97418.59
2023-05-21T08:02:57.839Z,97423.91
2023-05-21T08:05:26.321Z,97423.22
2023-05-21T08:07:53.455Z,97431.56
2023-05-21T08:10:21.478Z,97428.47
2023-05-21T08:12:51.290Z,97423.00
2023-05-21T08:15:19.140Z,97420.13
2023-05-21T08:17:46.709Z,97425.53
2023-05-21T08:20:15.451Z,97435.44
2023-05-21T08:22:44.791Z,97439.47
2023-05-21T08:25:13.770Z,97430.59
2023-05-21T08:27:41.258Z,97443.84
2023-05-21T08:30:11.757Z,97443.09
2023-05-21T08:32:39.179Z,97422.94
2023-05-21T08:35:07.638Z,97436.69
2023-05-21T08:37:50.504Z,97433.78
2023-05-21T08:40:25.354Z,97425.16
2023-05-21T08:42:52.678Z,97424.25
2023-05-21T08:45:38.549Z,97416.44
2023-05-21T08:48:07.203Z,97416.81
2023-05-21T08:50:35.933Z,97436.22
2023-05-21T08:53:19.918Z,97430.69
2023-05-21T08:55:56.436Z,97420.78
2023-05-21T08:58:25.796Z,97419.25
2023-05-21T09:00:55.436Z,97421.91
2023-05-21T09:03:26.942Z,97421.16
2023-05-21T09:05:55.403Z,97415.00
2023-05-21T09:08:32.956Z,97425.69
2023-05-21T09:11:03.959Z,97427.31
2023-05-21T09:13:46.640Z,97421.13
2023-05-21T09:16:21.893Z,97412.88
2023-05-21T09:18:49.748Z,97426.66
2023-05-21T09:21:31.823Z,97414.25
2023-05-21T09:24:04.246Z,97414.38
2023-05-21T09:26:31.560Z,97409.69
2023-05-21T09:29:04.451Z,97414.16
2023-05-21T09:31:33.178Z,97426.06
2023-05-21T09:34:01.448Z,97412.13
2023-05-21T09:36:29.828Z,97418.59
2023-05-21T09:38:58.657Z,97415.41
2023-05-21T09:41:34.065Z,97418.50
2023-05-21T09:44:02.967Z,97409.25
2023-05-21T09:46:42.793Z,97415.38
2023-05-21T09:49:26.801Z,97419.84
2023-05-21T09:51:59.412Z,97419.97
2023-05-21T09:54:31.718Z,97418.47
2023-05-21T09:57:02.689Z,97414.53
2023-05-21T09:59:37.445Z,97405.03
2023-05-21T10:02:16.790Z,97406.16
2023-05-21T10:04:48.115Z,97411.75
2023-05-21T10:07:26.145Z,97407.56
2023-05-21T10:09:56.330Z,97400.72
2023-05-21T10:12:27.607Z,97412.06
2023-05-21T10:15:04.175Z,97413.22
2023-05-21T10:17:33.010Z,97402.59
2023-05-21T10:20:03.462Z,97406.66
2023-05-21T10:22:31.478Z,97405.47
2023-05-21T10:25:02.578Z,97402.38
2023-05-21T10:27:32.333Z,97404.09
2023-05-21T10:30:01.778Z,97390.53
2023-05-21T10:32:31.507Z,97392.88
2023-05-21T10:35:01.495Z,97395.66
2023-05-21T10:37:29.531Z,97389.47
2023-05-21T10:39:57.327Z,97388.50
2023-05-21T10:42:24.451Z,97383.22
2023-05-21T10:45:01.349Z,97385.88
2023-05-21T10:47:42.783Z,97378.38
2023-05-21T10:50:38.479Z,97380.28
2023-05-21T10:53:24.822Z,97377.78
2023-05-21T10:56:22.255Z,97371.63
2023-05-21T10:59:26.973Z,97371.09
2023-05-21T11:01:55.550Z,97369.97
2023-05-21T11:04:29.311Z,97361.97
2023-05-21T11:06:58.920Z,97366.53
2023-05-21T11:09:27.223Z,97366.41
2023-05-21T11:11:59.153Z,97373.38
2023-05-21T11:14:39.556Z,97371.97
2023-05-21T11:17:06.990Z,97372.44
2023-05-21T11:19:35.160Z,97374.03
2023-05-21T11:22:06.798Z,97364.03
2023-05-21T11:24:39.946Z,97377.75
2023-05-21T11:27:07.283Z,97387.38
2023-05-21T11:29:40.899Z,97363.63
2023-05-21T11:32:13.968Z,97367.38
2023-05-21T11:34:46.673Z,97363.75
2023-05-21T11:37:18.540Z,97359.38
2023-05-21T11:39:52.186Z,97360.88
2023-05-21T11:42:40.093Z,97355.41
2023-05-21T11:45:11.985Z,97352.56
2023-05-21T11:48:03.400Z,97360.31
2023-05-21T11:50:32.447Z,97357.28
2023-05-21T11:53:00.854Z,97359.19
2023-05-21T11:55:28.143Z,97352.28
2023-05-21T11:57:55.890Z,97359.19
2023-05-21T12:00:23.368Z,97354.34
2023-05-21T12:03:01.257Z,97349.03
2023-05-21T12:05:31.831Z,97350.69
2023-05-21T12:08:09.999Z,97345.69
2023-05-21T12:10:58.604Z,97344.41
2023-05-21T12:13:26.499Z,97345.13
2023-05-21T12:15:54.872Z,97339.00
2023-05-21T12:18:27.547Z,97347.88
2023-05-21T12:20:55.488Z,97357.00
2023-05-21T12:23:26.401Z,97338.25
2023-05-21T12:26:02.008Z,97342.13
2023-05-21T12:28:29.815Z,97346.03
2023-05-21T12:30:56.949Z,97350.91
2023-05-21T12:33:26.197Z,97347.38
2023-05-21T12:35:53.307Z,97328.72
2023-05-21T12:38:20.903Z,97335.94
2023-05-21T12:40:47.991Z,97334.84
2023-05-21T12:43:16.439Z,97346.72
2023-05-21T12:45:44.636Z,97347.41
2023-05-21T12:48:12.840Z,97340.59
2023-05-21T12:50:55.807Z,97344.72
2023-05-21T12:53:38.475Z,97335.94
2023-05-21T12:56:11.862Z,97338.31
2023-05-21T12:58:39.368Z,97338.31
2023-05-21T13:01:11.630Z,97335.53
2023-05-21T13:03:41.548Z,97338.00
2023-05-21T13:06:09.320Z,97340.16
2023-05-21T13:08:36.650Z,97335.09
2023-05-21T13:11:04.640Z,97334.75
2023-05-21T13:13:31.568Z,97328.91
2023-05-21T13:16:00.860Z,97328.72
2023-05-21T13:18:28.178Z,97321.00
2023-05-21T13:20:55.197Z,97332.41
2023-05-21T13:23:23.440Z,97323.09
2023-05-21T13:25:50.901Z,97320.75
2023-05-21T13:28:18.051Z,97326.16
2023-05-21T13:30:45.492Z,97323.03
2023-05-21T13:33:13.454Z,97316.13
2023-05-21T13:35:41.154Z,97312.13
2023-05-21T13:38:08.673Z,97306.25
2023-05-21T13:40:38.106Z,97325.69
2023-05-21T13:43:25.613Z,97314.06
2023-05-21T13:45:52.870Z,97309.81
2023-05-21T13:48:20.300Z,97314.22
2023-05-21T13:50:48.475Z,97315.50
2023-05-21T13:53:15.748Z,97323.88
2023-05-21T13:55:42.721Z,97321.44
2023-05-21T13:58:09.999Z,97307.63
2023-05-21T14:00:37.213Z,97312.09
2023-05-21T14:03:06.855Z,97314.88
2023-05-21T14:05:34.530Z,97313.59
2023-05-21T14:08:01.906Z,97320.16
2023-05-21T14:10:28.896Z,97308.38
2023-05-21T14:13:04.293Z,97310.84
2023-05-21T14:15:39.052Z,97307.94
2023-05-21T14:18:08.261Z,97297.97
2023-05-21T14:20:35.883Z,97303.78
2023-05-21T14:23:04.706Z,97298.88
2023-05-21T14:25:36.586Z,97293.22
2023-05-21T14:28:13.144Z,97288.56
2023-05-21T14:30:43.830Z,97288.78
2023-05-21T14:33:11.893Z,97297.16
2023-05-21T14:35:39.479Z,97297.34
2023-05-21T14:38:06.729Z,97302.94
2023-05-21T14:40:33.787Z,97300.13
2023-05-21T14:43:00.881Z,97294.13
2023-05-21T14:45:33.228Z,97291.06
2023-05-21T14:48:00.520Z,97294.50
2023-05-21T14:50:30.218Z,97301.69
2023-05-21T14:52:57.368Z,97301.41
2023-05-21T14:55:24.605Z,97293.84
2023-05-21T14:57:56.391Z,97291.94
2023-05-21T15:00:25.215Z,97291.00
2023-05-21T15:02:54.031Z,97302.09
2023-05-21T15:05:23.130Z,97301.88
2023-05-21T15:07:50.478Z,97302.84
2023-05-21T15:10:18.740Z,97308.38
2023-05-21T15:12:46.430Z,97297.38
2023-05-21T15:15:14.758Z,97296.69
2023-05-21T15:17:41.920Z,97300.25
2023-05-21T15:20:10.997Z,97292.88
2023-05-21T15:22:38.803Z,97295.59
2023-05-21T15:25:15.066Z,97289.03
2023-05-21T15:27:44.624Z,97295.34
2023-05-21T15:30:12.446Z,97297.13
2023-05-21T15:32:48.696Z,97286.47
2023-05-21T15:35:19.516Z,97293.56
2023-05-21T15:37:49.196Z,97283.03
2023-05-21T15:40:20.153Z,97284.13
2023-05-21T15:42:53.464Z,97287.13
2023-05-21T15:45:36.085Z,97281.97
2023-05-21T15:48:07.428Z,97282.38
2023-05-21T15:50:38.544Z,97269.84
2023-05-21T15:53:05.833Z,97280.31
2023-05-21T15:55:33.872Z,97278.25
2023-05-21T15:58:02.572Z,97276.03
2023-05-21T16:00:30.049Z,97278.63
2023-05-21T16:03:06.821Z,97265.00
2023-05-21T16:05:56.388Z,97270.84
2023-05-21T16:08:25.035Z,97270.44
2023-05-21T16:10:52.130Z,97265.03
2023-05-21T16:13:21.755Z,97269.44
2023-05-21T16:15:50.236Z,97267.53
2023-05-21T16:21:23.999Z,97266.34
2023-05-21T16:23:52.599Z,97279.53
2023-05-21T16:26:21.792Z,97279.22
2023-05-21T16:28:49.259Z,97284.16
2023-05-21T16:31:16.663Z,97275.59
2023-05-21T16:33:45.132Z,97279.97
2023-05-21T16:36:12.456Z,97277.09
2023-05-21T16:38:39.692Z,97273.00
2023-05-21T16:41:09.927Z,97267.31
2023-05-21T16:43:38.509Z,97259.84
2023-05-21T16:46:08.679Z,97258.16
2023-05-21T16:48:38.050Z,97253.97
2023-05-21T16:51:09.098Z,97260.28
2023-05-21T16:53:36.472Z,97246.09
2023-05-21T16:56:03.703Z,97266.44
2023-05-21T16:58:36.298Z,97258.00
2023-05-21T17:01:04.217Z,97267.44
2023-05-21T17:03:32.773Z,97259.81
2023-05-21T17:06:00.139Z,97255.22
2023-05-21T17:08:28.282Z,97258.13
2023-05-21T17:10:55.829Z,97260.16
2023-05-21T17:13:23.559Z,97259.31
2023-05-21T17:15:51.747Z,97258.53
2023-05-21T17:18:19.088Z,97254.03
2023-05-21T17:20:46.472Z,97256.28
2023-05-21T17:23:16.461Z,97252.44
2023-05-21T17:25:43.818Z,97251.28
2023-05-21T17:28:11.515Z,97256.63
2023-05-21T17:30:39.351Z,97257.06
2023-05-21T17:33:08.003Z,97261.31
2023-05-21T17:35:35.624Z,97263.16
2023-05-21T17:38:03.241Z,97264.94
2023-05-21T17:40:30.497Z,97261.75
2023-05-21T17:42:58.064Z,97268.56
2023-05-21T17:45:26.339Z,97271.03
2023-05-21T17:47:53.624Z,97263.00
2023-05-21T17:50:20.980Z,97271.66
2023-05-21T17:52:48.324Z,97264.16
2023-05-21T17:55:15.554Z,97270.22
2023-05-21T17:57:42.850Z,97266.25
2023-05-21T18:00:10.896Z,97265.28
2023-05-21T18:02:40.980Z,97260.81
2023-05-21T18:05:08.908Z,97275.00
2023-05-21T18:07:37.389Z,97270.91
2023-05-21T18:10:09.371Z,97272.69
2023-05-21T18:12:36.582Z,97273.09
2023-05-21T18:15:05.139Z,97276.50
2023-05-21T18:17:33.163Z,97269.00
2023-05-21T18:20:00.394Z,97273.16
2023-05-21T18:22:27.375Z,97276.84
2023-05-21T18:24:57.079Z,97279.56
2023-05-21T18:27:24.207Z,97283.59
2023-05-21T18:29:52.668Z,97289.13
2023-05-21T18:32:20.418Z,97288.78
2023-05-21T18:34:48.749Z,97284.03
2023-05-21T18:37:17.312Z,97289.44
2023-05-21T18:39:44.701Z,97294.34
2023-05-21T18:42:13.971Z,97288.97
2023-05-21T18:44:41.788Z,97300.38
2023-05-21T18:47:09.403Z,97295.75
2023-05-21T18:49:36.686Z,97297.03
2023-05-21T18:52:08.015Z,97304.44
2023-05-21T18:54:35.336Z,97312.03
2023-05-21T18:57:02.653Z,97308.66
2023-05-21T18:59:31.758Z,97309.56
2023-05-21T19:01:59.277Z,97312.28
2023-05-21T19:04:31.309Z,97311.28
2023-05-21T19:06:58.473Z,97318.78
2023-05-21T19:09:25.842Z,97319.81
2023-05-21T19:11:53.039Z,97321.81
2023-05-21T19:14:21.256Z,97319.06
2023-05-21T19:16:48.402Z,97316.69
2023-05-21T19:19:15.502Z,97319.31
2023-05-21T19:21:44.035Z,97327.03
2023-05-21T19:24:11.276Z,97322.41
2023-05-21T19:26:38.540Z,97323.78
2023-05-21T19:29:05.976Z,97334.97
2023-05-21T19:31:33.690Z,97337.75
2023-05-21T19:34:01.015Z,97337.50
2023-05-21T19:36:34.983Z,97336.97
2023-05-21T19:39:10.986Z,97343.94
2023-05-21T19:41:38.189Z,97346.72
2023-05-21T19:44:05.312Z,97342.22
2023-05-21T19:46:32.617Z,97350.53
2023-05-21T19:48:59.785Z,97356.41
2023-05-21T19:51:27.330Z,97355.41
2023-05-21T19:53:55.720Z,97358.13
2023-05-21T19:56:23.069Z,97354.09
2023-05-21T19:58:51.355Z,97354.56
2023-05-21T20:01:19.078Z,97356.56
2023-05-21T20:03:46.847Z,97364.31
2023-05-21T20:06:20.159Z,97359.31
2023-05-21T20:08:49.486Z,97355.56
2023-05-21T20:11:16.613Z,97355.78
2023-05-21T20:13:53.631Z,97358.50
2023-05-21T20:16:21.002Z,97361.06
2023-05-21T20:18:48.134Z,97357.19
2023-05-21T20:21:18.250Z,97353.56
2023-05-21T20:23:47.796Z,97369.91
2023-05-21T20:26:19.384Z,97359.25
2023-05-21T20:28:46.452Z,97363.09
2023-05-21T20:31:13.881Z,97376.03
2023-05-21T20:33:42.065Z,97372.28
2023-05-21T20:36:09.491Z,97366.56
2023-05-21T20:38:38.590Z,97361.41
2023-05-21T20:41:06.178Z,97368.25
2023-05-21T20:43:38.916Z,97365.25
2023-05-21T20:46:06.542Z,97363.47
2023-05-21T20:48:35.474Z,97372.22
2023-05-21T20:51:04.779Z,97363.19
2023-05-21T20:53:32.314Z,97364.44
2023-05-21T20:56:01.864Z,97370.00
2023-05-21T20:58:29.929Z,97369.63
2023-05-21T21:00:58.429Z,97369.03
2023-05-21T21:03:25.574Z,97368.75
2023-05-21T21:05:53.198Z,97368.91
2023-05-21T21:08:25.156Z,97366.38
2023-05-21T21:10:52.200Z,97365.34
2023-05-21T21:13:19.429Z,97375.94
2023-05-21T21:15:46.575Z,97372.63
2023-05-21T21:18:14.611Z,97375.19
2023-05-21T21:20:42.884Z,97372.03
2023-05-21T21:23:16.845Z,97376.91
2023-05-21T21:25:44.193Z,97380.38
2023-05-21T21:28:11.286Z,97374.34
2023-05-21T21:30:41.330Z,97382.66
2023-05-21T21:33:09.113Z,97376.00
2023-05-21T21:35:36.305Z,97380.09
2023-05-21T21:38:05.444Z,97375.59
2023-05-21T21:40:32.489Z,97373.19
2023-05-21T21:42:59.657Z,97375.91
2023-05-21T21:45:27.093Z,97373.50
2023-05-21T21:47:54.562Z,97383.47
2023-05-21T21:50:21.796Z,97373.97
2023-05-21T21:52:50.396Z,97372.16
2023-05-21T21:55:19.274Z,97374.59
2023-05-21T21:57:46.716Z,97377.13
2023-05-21T22:00:19.949Z,97371.88
2023-05-21T22:02:47.117Z,97375.19
2023-05-21T22:05:17.226Z,97373.50
2023-05-21T22:07:48.077Z,97370.97
2023-05-21T22:10:19.557Z,97373.53
2023-05-21T22:12:49.525Z,97374.75
2023-05-21T22:15:23.128Z,97370.81
2023-05-21T22:17:50.471Z,97369.75
2023-05-21T22:20:18.664Z,97364.50
2023-05-21T22:22:46.390Z,97368.72
2023-05-21T22:25:14.660Z,97367.22
2023-05-21T22:27:43.312Z,97361.50
2023-05-21T22:30:11.135Z,97371.28
2023-05-21T22:32:38.560Z,97369.94
2023-05-21T22:35:06.475Z,97365.84
2023-05-21T22:37:33.623Z,97372.19
2023-05-21T22:40:00.639Z,97369.03
2023-05-21T22:42:27.807Z,97366.75
2023-05-21T22:44:56.472Z,97369.63
2023-05-21T22:47:24.006Z,97369.34
2023-05-21T22:49:53.521Z,97370.84
2023-05-21T22:52:24.613Z,97368.56
2023-05-21T22:54:52.919Z,97363.31
2023-05-21T22:57:20.527Z,97366.91
2023-05-21T22:59:47.586Z,97364.53
2023-05-21T23:02:15.835Z,97364.53
2023-05-21T23:04:44.644Z,97368.72
2023-05-21T23:07:12.680Z,97363.00
2023-05-21T23:09:39.709Z,97364.34
2023-05-21T23:12:08.152Z,97368.72
2023-05-21T23:14:35.186Z,97364.53
2023-05-21T23:17:02.593Z,97363.00
2023-05-21T23:19:29.821Z,97363.00
2023-05-21T23:21:57.286Z,97371.44
2023-05-21T23:24:25.392Z,97360.59
2023-05-21T23:26:52.698Z,97364.22
2023-05-21T23:29:19.878Z,97357.72
2023-05-21T23:31:47.308Z,97361.78
2023-05-21T23:34:14.677Z,97362.41
2023-05-21T23:36:41.717Z,97367.81
2023-05-21T23:39:09.523Z,97364.78
2023-05-21T23:41:38.067Z,97370.53
2023-05-21T23:44:05.271Z,97360.00
2023-05-21T23:46:32.311Z,97360.59
2023-05-21T23:48:59.309Z,97360.59
2023-05-21T23:51:26.642Z,97360.59
2023-05-21T23:53:54.230Z,97358.31
2023-05-21T23:56:22.403Z,97353.81
2023-05-21T23:58:50.276Z,97354.25
